sensor_id;sensor_type;location;lat;lon;timestamp;P1;durP1;ratioP1;P2;durP2;ratioP2
15071;SDS011;7635;56.696;13.002;2022-10-16T00:02:10;4.63;;;3.05;;
15071;SDS011;7635;56.696;13.002;2022-10-16T00:04:37;5.25;;;3.22;;
15071;SDS011;7635;56.696;13.002;2022-10-16T00:07:04;4.20;;;2.78;;
15071;SDS011;7635;56.696;13.002;2022-10-16T00:09:30;3.77;;;3.00;;
15071;SDS011;7635;56.696;13.002;2022-10-16T00:11:57;3.83;;;2.70;;
15071;SDS011;7635;56.696;13.002;2022-10-16T00:14:25;4.20;;;3.17;;
15071;SDS011;7635;56.696;13.002;2022-10-16T00:16:52;3.33;;;2.60;;
15071;SDS011;7635;56.696;13.002;2022-10-16T00:19:19;5.30;;;2.70;;
15071;SDS011;7635;56.696;13.002;2022-10-16T00:21:45;5.85;;;3.05;;
15071;SDS011;7635;56.696;13.002;2022-10-16T00:24:12;4.18;;;2.85;;
15071;SDS011;7635;56.696;13.002;2022-10-16T00:26:39;4.40;;;2.72;;
15071;SDS011;7635;56.696;13.002;2022-10-16T00:29:07;4.82;;;2.70;;
15071;SDS011;7635;56.696;13.002;2022-10-16T00:31:35;4.45;;;3.05;;
15071;SDS011;7635;56.696;13.002;2022-10-16T00:34:02;4.53;;;2.93;;
15071;SDS011;7635;56.696;13.002;2022-10-16T00:36:29;3.78;;;3.00;;
15071;SDS011;7635;56.696;13.002;2022-10-16T00:38:57;3.35;;;2.83;;
15071;SDS011;7635;56.696;13.002;2022-10-16T00:41:25;4.35;;;2.78;;
15071;SDS011;7635;56.696;13.002;2022-10-16T00:43:54;3.85;;;2.92;;
15071;SDS011;7635;56.696;13.002;2022-10-16T00:46:23;4.03;;;2.78;;
15071;SDS011;7635;56.696;13.002;2022-10-16T00:48:55;3.92;;;3.13;;
15071;SDS011;7635;56.696;13.002;2022-10-16T00:51:25;4.23;;;3.07;;
15071;SDS011;7635;56.696;13.002;2022-10-16T00:53:57;4.50;;;3.35;;
15071;SDS011;7635;56.696;13.002;2022-10-16T00:56:24;5.35;;;3.65;;
15071;SDS011;7635;56.696;13.002;2022-10-16T00:58:51;8.50;;;3.47;;
15071;SDS011;7635;56.696;13.002;2022-10-16T01:01:17;4.85;;;3.40;;
15071;SDS011;7635;56.696;13.002;2022-10-16T01:03:44;7.10;;;3.87;;
15071;SDS011;7635;56.696;13.002;2022-10-16T01:06:21;5.17;;;3.60;;
15071;SDS011;7635;56.696;13.002;2022-10-16T01:08:54;6.85;;;4.40;;
15071;SDS011;7635;56.696;13.002;2022-10-16T01:11:44;7.90;;;3.93;;
15071;SDS011;7635;56.696;13.002;2022-10-16T01:14:19;7.00;;;4.10;;
15071;SDS011;7635;56.696;13.002;2022-10-16T01:16:53;7.93;;;4.50;;
15071;SDS011;7635;56.696;13.002;2022-10-16T01:19:26;6.83;;;4.37;;
15071;SDS011;7635;56.696;13.002;2022-10-16T01:22:15;6.73;;;4.60;;
15071;SDS011;7635;56.696;13.002;2022-10-16T01:24:45;5.30;;;3.87;;
15071;SDS011;7635;56.696;13.002;2022-10-16T01:27:16;7.87;;;4.23;;
15071;SDS011;7635;56.696;13.002;2022-10-16T01:29:48;6.77;;;4.77;;
15071;SDS011;7635;56.696;13.002;2022-10-16T01:32:22;7.50;;;4.53;;
15071;SDS011;7635;56.696;13.002;2022-10-16T01:34:56;8.30;;;4.50;;
15071;SDS011;7635;56.696;13.002;2022-10-16T01:37:29;7.83;;;4.77;;
15071;SDS011;7635;56.696;13.002;2022-10-16T01:40:01;8.20;;;5.20;;
15071;SDS011;7635;56.696;13.002;2022-10-16T01:42:35;7.13;;;4.17;;
15071;SDS011;7635;56.696;13.002;2022-10-16T01:45:05;9.70;;;5.22;;
15071;SDS011;7635;56.696;13.002;2022-10-16T01:47:36;9.50;;;4.63;;
15071;SDS011;7635;56.696;13.002;2022-10-16T01:50:05;7.38;;;4.15;;
15071;SDS011;7635;56.696;13.002;2022-10-16T01:52:34;6.93;;;3.77;;
15071;SDS011;7635;56.696;13.002;2022-10-16T01:55:05;8.93;;;5.07;;
15071;SDS011;7635;56.696;13.002;2022-10-16T01:57:36;6.78;;;4.22;;
15071;SDS011;7635;56.696;13.002;2022-10-16T02:00:08;7.35;;;4.78;;
15071;SDS011;7635;56.696;13.002;2022-10-16T02:02:38;7.37;;;4.43;;
15071;SDS011;7635;56.696;13.002;2022-10-16T02:05:10;6.82;;;4.25;;
15071;SDS011;7635;56.696;13.002;2022-10-16T02:07:41;8.07;;;4.97;;
15071;SDS011;7635;56.696;13.002;2022-10-16T02:10:08;6.25;;;4.72;;
15071;SDS011;7635;56.696;13.002;2022-10-16T02:12:37;8.27;;;4.73;;
15071;SDS011;7635;56.696;13.002;2022-10-16T02:15:07;6.85;;;4.43;;
15071;SDS011;7635;56.696;13.002;2022-10-16T02:17:35;7.07;;;4.00;;
15071;SDS011;7635;56.696;13.002;2022-10-16T02:20:02;7.40;;;4.27;;
15071;SDS011;7635;56.696;13.002;2022-10-16T02:22:32;6.17;;;4.13;;
15071;SDS011;7635;56.696;13.002;2022-10-16T02:25:03;9.48;;;4.60;;
15071;SDS011;7635;56.696;13.002;2022-10-16T02:27:35;5.50;;;3.73;;
15071;SDS011;7635;56.696;13.002;2022-10-16T02:30:08;7.05;;;3.58;;
15071;SDS011;7635;56.696;13.002;2022-10-16T02:32:39;6.10;;;4.05;;
15071;SDS011;7635;56.696;13.002;2022-10-16T02:35:08;7.50;;;4.23;;
15071;SDS011;7635;56.696;13.002;2022-10-16T02:37:36;7.22;;;4.15;;
15071;SDS011;7635;56.696;13.002;2022-10-16T02:40:04;6.20;;;3.95;;
15071;SDS011;7635;56.696;13.002;2022-10-16T02:42:33;7.03;;;3.87;;
15071;SDS011;7635;56.696;13.002;2022-10-16T02:45:03;9.27;;;4.53;;
15071;SDS011;7635;56.696;13.002;2022-10-16T02:47:31;6.50;;;4.50;;
15071;SDS011;7635;56.696;13.002;2022-10-16T02:49:57;5.60;;;3.28;;
15071;SDS011;7635;56.696;13.002;2022-10-16T02:52:24;7.45;;;3.83;;
15071;SDS011;7635;56.696;13.002;2022-10-16T02:54:51;6.80;;;3.65;;
15071;SDS011;7635;56.696;13.002;2022-10-16T02:57:18;5.45;;;3.90;;
15071;SDS011;7635;56.696;13.002;2022-10-16T02:59:44;8.50;;;4.30;;
15071;SDS011;7635;56.696;13.002;2022-10-16T03:02:13;8.75;;;3.53;;
15071;SDS011;7635;56.696;13.002;2022-10-16T03:04:39;6.55;;;4.13;;
15071;SDS011;7635;56.696;13.002;2022-10-16T03:07:06;7.28;;;4.07;;
15071;SDS011;7635;56.696;13.002;2022-10-16T03:09:33;5.03;;;3.85;;
15071;SDS011;7635;56.696;13.002;2022-10-16T03:12:00;3.58;;;2.72;;
15071;SDS011;7635;56.696;13.002;2022-10-16T03:14:27;8.45;;;4.20;;
15071;SDS011;7635;56.696;13.002;2022-10-16T03:16:53;6.60;;;3.85;;
15071;SDS011;7635;56.696;13.002;2022-10-16T03:19:21;7.53;;;3.42;;
15071;SDS011;7635;56.696;13.002;2022-10-16T03:21:48;5.03;;;3.78;;
15071;SDS011;7635;56.696;13.002;2022-10-16T03:24:15;5.63;;;3.67;;
15071;SDS011;7635;56.696;13.002;2022-10-16T03:26:42;6.35;;;3.88;;
15071;SDS011;7635;56.696;13.002;2022-10-16T03:29:09;4.28;;;3.50;;
15071;SDS011;7635;56.696;13.002;2022-10-16T03:31:35;6.28;;;4.05;;
15071;SDS011;7635;56.696;13.002;2022-10-16T03:34:02;4.88;;;3.53;;
15071;SDS011;7635;56.696;13.002;2022-10-16T03:36:30;6.25;;;3.30;;
15071;SDS011;7635;56.696;13.002;2022-10-16T03:38:57;4.75;;;3.45;;
15071;SDS011;7635;56.696;13.002;2022-10-16T03:41:24;6.85;;;3.50;;
15071;SDS011;7635;56.696;13.002;2022-10-16T03:43:50;10.48;;;4.25;;
15071;SDS011;7635;56.696;13.002;2022-10-16T03:46:17;7.63;;;3.93;;
15071;SDS011;7635;56.696;13.002;2022-10-16T03:48:44;5.32;;;4.10;;
15071;SDS011;7635;56.696;13.002;2022-10-16T03:51:11;4.72;;;3.28;;
15071;SDS011;7635;56.696;13.002;2022-10-16T03:53:39;8.13;;;3.95;;
15071;SDS011;7635;56.696;13.002;2022-10-16T03:56:05;7.88;;;3.65;;
15071;SDS011;7635;56.696;13.002;2022-10-16T03:58:32;7.47;;;4.80;;
15071;SDS011;7635;56.696;13.002;2022-10-16T04:00:59;5.65;;;3.47;;
15071;SDS011;7635;56.696;13.002;2022-10-16T04:03:26;7.88;;;4.28;;
15071;SDS011;7635;56.696;13.002;2022-10-16T04:05:53;6.75;;;3.58;;
15071;SDS011;7635;56.696;13.002;2022-10-16T04:08:20;5.97;;;4.00;;
15071;SDS011;7635;56.696;13.002;2022-10-16T04:10:48;8.80;;;3.75;;
15071;SDS011;7635;56.696;13.002;2022-10-16T04:13:15;6.93;;;4.05;;
15071;SDS011;7635;56.696;13.002;2022-10-16T04:15:41;6.45;;;4.00;;
15071;SDS011;7635;56.696;13.002;2022-10-16T04:18:10;6.35;;;3.90;;
15071;SDS011;7635;56.696;13.002;2022-10-16T04:20:37;6.18;;;3.58;;
15071;SDS011;7635;56.696;13.002;2022-10-16T04:23:04;6.05;;;3.35;;
15071;SDS011;7635;56.696;13.002;2022-10-16T04:25:30;5.53;;;3.67;;
15071;SDS011;7635;56.696;13.002;2022-10-16T04:27:59;4.60;;;3.92;;
15071;SDS011;7635;56.696;13.002;2022-10-16T04:30:26;7.25;;;4.03;;
15071;SDS011;7635;56.696;13.002;2022-10-16T04:32:52;7.28;;;3.70;;
15071;SDS011;7635;56.696;13.002;2022-10-16T04:35:20;8.73;;;3.53;;
15071;SDS011;7635;56.696;13.002;2022-10-16T04:37:47;5.05;;;3.38;;
15071;SDS011;7635;56.696;13.002;2022-10-16T04:40:15;5.07;;;3.38;;
15071;SDS011;7635;56.696;13.002;2022-10-16T04:42:42;4.65;;;3.40;;
15071;SDS011;7635;56.696;13.002;2022-10-16T04:45:10;6.70;;;3.78;;
15071;SDS011;7635;56.696;13.002;2022-10-16T04:47:37;7.03;;;3.97;;
15071;SDS011;7635;56.696;13.002;2022-10-16T04:50:04;5.03;;;3.60;;
15071;SDS011;7635;56.696;13.002;2022-10-16T04:52:32;5.68;;;3.60;;
15071;SDS011;7635;56.696;13.002;2022-10-16T04:54:58;5.05;;;3.17;;
15071;SDS011;7635;56.696;13.002;2022-10-16T04:57:27;4.00;;;2.55;;
15071;SDS011;7635;56.696;13.002;2022-10-16T04:59:55;4.35;;;3.00;;
15071;SDS011;7635;56.696;13.002;2022-10-16T05:02:23;3.88;;;3.15;;
15071;SDS011;7635;56.696;13.002;2022-10-16T05:04:51;5.80;;;3.07;;
15071;SDS011;7635;56.696;13.002;2022-10-16T05:07:18;7.00;;;2.77;;
15071;SDS011;7635;56.696;13.002;2022-10-16T05:09:44;4.40;;;2.72;;
15071;SDS011;7635;56.696;13.002;2022-10-16T05:12:11;2.67;;;2.17;;
15071;SDS011;7635;56.696;13.002;2022-10-16T05:14:38;3.23;;;2.30;;
15071;SDS011;7635;56.696;13.002;2022-10-16T05:17:04;4.60;;;2.42;;
15071;SDS011;7635;56.696;13.002;2022-10-16T05:19:32;4.10;;;2.28;;
15071;SDS011;7635;56.696;13.002;2022-10-16T05:21:59;3.80;;;2.65;;
15071;SDS011;7635;56.696;13.002;2022-10-16T05:24:26;4.70;;;2.65;;
15071;SDS011;7635;56.696;13.002;2022-10-16T05:26:53;3.60;;;2.95;;
15071;SDS011;7635;56.696;13.002;2022-10-16T05:29:20;6.15;;;3.30;;
15071;SDS011;7635;56.696;13.002;2022-10-16T05:31:49;5.55;;;2.70;;
15071;SDS011;7635;56.696;13.002;2022-10-16T05:34:16;3.60;;;2.53;;
15071;SDS011;7635;56.696;13.002;2022-10-16T05:36:44;2.67;;;2.47;;
15071;SDS011;7635;56.696;13.002;2022-10-16T05:39:11;4.63;;;2.67;;
15071;SDS011;7635;56.696;13.002;2022-10-16T05:41:40;4.90;;;2.75;;
15071;SDS011;7635;56.696;13.002;2022-10-16T05:44:06;5.45;;;2.75;;
15071;SDS011;7635;56.696;13.002;2022-10-16T05:46:33;3.75;;;2.85;;
15071;SDS011;7635;56.696;13.002;2022-10-16T05:49:00;4.20;;;2.65;;
15071;SDS011;7635;56.696;13.002;2022-10-16T05:51:27;5.22;;;3.00;;
15071;SDS011;7635;56.696;13.002;2022-10-16T05:53:55;3.92;;;2.88;;
15071;SDS011;7635;56.696;13.002;2022-10-16T05:56:21;4.60;;;3.10;;
15071;SDS011;7635;56.696;13.002;2022-10-16T05:58:48;3.63;;;2.60;;
15071;SDS011;7635;56.696;13.002;2022-10-16T06:01:16;5.95;;;2.60;;
15071;SDS011;7635;56.696;13.002;2022-10-16T06:03:44;2.97;;;2.35;;
15071;SDS011;7635;56.696;13.002;2022-10-16T06:06:11;5.15;;;2.20;;
15071;SDS011;7635;56.696;13.002;2022-10-16T06:08:39;3.03;;;2.40;;
15071;SDS011;7635;56.696;13.002;2022-10-16T06:11:08;5.18;;;2.42;;
15071;SDS011;7635;56.696;13.002;2022-10-16T06:13:37;2.38;;;2.08;;
15071;SDS011;7635;56.696;13.002;2022-10-16T06:16:06;3.88;;;2.33;;
15071;SDS011;7635;56.696;13.002;2022-10-16T06:18:34;5.28;;;2.67;;
15071;SDS011;7635;56.696;13.002;2022-10-16T06:21:06;5.80;;;2.45;;
15071;SDS011;7635;56.696;13.002;2022-10-16T06:23:34;4.50;;;2.53;;
15071;SDS011;7635;56.696;13.002;2022-10-16T06:26:04;3.00;;;2.33;;
15071;SDS011;7635;56.696;13.002;2022-10-16T06:28:33;4.07;;;2.25;;
15071;SDS011;7635;56.696;13.002;2022-10-16T06:31:00;6.35;;;2.63;;
15071;SDS011;7635;56.696;13.002;2022-10-16T06:33:27;3.80;;;2.47;;
15071;SDS011;7635;56.696;13.002;2022-10-16T06:35:53;6.80;;;2.30;;
15071;SDS011;7635;56.696;13.002;2022-10-16T06:38:25;3.90;;;2.28;;
15071;SDS011;7635;56.696;13.002;2022-10-16T06:40:53;3.35;;;1.45;;
15071;SDS011;7635;56.696;13.002;2022-10-16T06:43:19;2.83;;;2.15;;
15071;SDS011;7635;56.696;13.002;2022-10-16T06:45:51;3.10;;;2.45;;
15071;SDS011;7635;56.696;13.002;2022-10-16T06:48:18;6.72;;;2.58;;
15071;SDS011;7635;56.696;13.002;2022-10-16T06:50:54;3.95;;;2.05;;
15071;SDS011;7635;56.696;13.002;2022-10-16T06:53:22;4.28;;;2.33;;
15071;SDS011;7635;56.696;13.002;2022-10-16T06:55:49;2.40;;;2.20;;
15071;SDS011;7635;56.696;13.002;2022-10-16T06:58:15;6.40;;;2.55;;
15071;SDS011;7635;56.696;13.002;2022-10-16T07:00:42;3.03;;;2.30;;
15071;SDS011;7635;56.696;13.002;2022-10-16T07:03:10;2.08;;;1.80;;
15071;SDS011;7635;56.696;13.002;2022-10-16T07:05:37;4.20;;;2.05;;
15071;SDS011;7635;56.696;13.002;2022-10-16T07:08:04;1.52;;;1.42;;
15071;SDS011;7635;56.696;13.002;2022-10-16T07:10:31;4.95;;;2.00;;
15071;SDS011;7635;56.696;13.002;2022-10-16T07:12:58;4.70;;;2.00;;
15071;SDS011;7635;56.696;13.002;2022-10-16T07:15:25;7.07;;;2.35;;
15071;SDS011;7635;56.696;13.002;2022-10-16T07:17:52;3.47;;;2.03;;
15071;SDS011;7635;56.696;13.002;2022-10-16T07:20:20;1.98;;;1.75;;
15071;SDS011;7635;56.696;13.002;2022-10-16T07:22:47;4.05;;;1.90;;
15071;SDS011;7635;56.696;13.002;2022-10-16T07:25:14;2.58;;;1.92;;
15071;SDS011;7635;56.696;13.002;2022-10-16T07:27:41;1.10;;;1.00;;
15071;SDS011;7635;56.696;13.002;2022-10-16T07:30:08;3.10;;;1.80;;
15071;SDS011;7635;56.696;13.002;2022-10-16T07:32:35;3.67;;;1.95;;
15071;SDS011;7635;56.696;13.002;2022-10-16T07:35:02;1.73;;;1.63;;
15071;SDS011;7635;56.696;13.002;2022-10-16T07:37:31;3.50;;;1.80;;
15071;SDS011;7635;56.696;13.002;2022-10-16T07:39:58;1.98;;;1.63;;
15071;SDS011;7635;56.696;13.002;2022-10-16T07:42:24;6.38;;;1.98;;
15071;SDS011;7635;56.696;13.002;2022-10-16T07:44:51;1.52;;;1.42;;
15071;SDS011;7635;56.696;13.002;2022-10-16T07:47:18;3.45;;;1.88;;
15071;SDS011;7635;56.696;13.002;2022-10-16T07:49:45;1.75;;;1.52;;
15071;SDS011;7635;56.696;13.002;2022-10-16T07:52:12;2.10;;;1.85;;
15071;SDS011;7635;56.696;13.002;2022-10-16T07:54:40;1.52;;;1.42;;
15071;SDS011;7635;56.696;13.002;2022-10-16T07:57:07;3.67;;;1.67;;
15071;SDS011;7635;56.696;13.002;2022-10-16T07:59:33;1.85;;;1.75;;
15071;SDS011;7635;56.696;13.002;2022-10-16T08:02:00;6.78;;;1.75;;
15071;SDS011;7635;56.696;13.002;2022-10-16T08:04:27;0.68;;;0.68;;
15071;SDS011;7635;56.696;13.002;2022-10-16T08:06:54;3.45;;;1.73;;
15071;SDS011;7635;56.696;13.002;2022-10-16T08:09:20;1.52;;;1.42;;
15071;SDS011;7635;56.696;13.002;2022-10-16T08:11:49;3.33;;;1.92;;
15071;SDS011;7635;56.696;13.002;2022-10-16T08:14:17;5.15;;;2.33;;
15071;SDS011;7635;56.696;13.002;2022-10-16T08:16:44;5.40;;;1.98;;
15071;SDS011;7635;56.696;13.002;2022-10-16T08:19:11;2.33;;;2.13;;
15071;SDS011;7635;56.696;13.002;2022-10-16T08:21:37;2.08;;;1.30;;
15071;SDS011;7635;56.696;13.002;2022-10-16T08:24:04;1.10;;;1.05;;
15071;SDS011;7635;56.696;13.002;2022-10-16T08:26:31;2.25;;;2.05;;
15071;SDS011;7635;56.696;13.002;2022-10-16T08:28:59;1.20;;;1.10;;
15071;SDS011;7635;56.696;13.002;2022-10-16T08:31:26;3.53;;;2.20;;
15071;SDS011;7635;56.696;13.002;2022-10-16T08:33:53;2.40;;;1.63;;
15071;SDS011;7635;56.696;13.002;2022-10-16T08:36:19;1.88;;;1.77;;
15071;SDS011;7635;56.696;13.002;2022-10-16T08:38:49;3.42;;;1.65;;
15071;SDS011;7635;56.696;13.002;2022-10-16T08:44:33;3.35;;;1.40;;
15071;SDS011;7635;56.696;13.002;2022-10-16T08:47:12;2.75;;;2.22;;
15071;SDS011;7635;56.696;13.002;2022-10-16T08:49:46;3.97;;;1.55;;
15071;SDS011;7635;56.696;13.002;2022-10-16T08:52:22;2.45;;;1.92;;
15071;SDS011;7635;56.696;13.002;2022-10-16T08:54:51;3.67;;;2.03;;
15071;SDS011;7635;56.696;13.002;2022-10-16T08:57:21;3.80;;;1.67;;
15071;SDS011;7635;56.696;13.002;2022-10-16T08:59:52;3.50;;;1.63;;
15071;SDS011;7635;56.696;13.002;2022-10-16T09:02:23;5.35;;;2.05;;
15071;SDS011;7635;56.696;13.002;2022-10-16T09:04:57;1.95;;;1.73;;
15071;SDS011;7635;56.696;13.002;2022-10-16T09:07:39;2.97;;;2.00;;
15071;SDS011;7635;56.696;13.002;2022-10-16T09:10:19;3.97;;;1.67;;
15071;SDS011;7635;56.696;13.002;2022-10-16T09:12:58;4.13;;;2.05;;
15071;SDS011;7635;56.696;13.002;2022-10-16T09:15:38;3.80;;;1.20;;
15071;SDS011;7635;56.696;13.002;2022-10-16T09:18:10;7.15;;;2.47;;
15071;SDS011;7635;56.696;13.002;2022-10-16T09:20:49;7.93;;;2.00;;
15071;SDS011;7635;56.696;13.002;2022-10-16T09:23:17;8.10;;;2.35;;
15071;SDS011;7635;56.696;13.002;2022-10-16T09:25:46;4.35;;;2.30;;
15071;SDS011;7635;56.696;13.002;2022-10-16T09:28:14;1.30;;;1.20;;
15071;SDS011;7635;56.696;13.002;2022-10-16T09:30:44;3.42;;;2.00;;
15071;SDS011;7635;56.696;13.002;2022-10-16T09:33:13;1.63;;;1.52;;
15071;SDS011;7635;56.696;13.002;2022-10-16T09:35:42;3.42;;;1.50;;
15071;SDS011;7635;56.696;13.002;2022-10-16T09:38:20;2.67;;;1.90;;
15071;SDS011;7635;56.696;13.002;2022-10-16T09:40:48;3.10;;;1.83;;
15071;SDS011;7635;56.696;13.002;2022-10-16T09:43:19;1.40;;;1.30;;
15071;SDS011;7635;56.696;13.002;2022-10-16T09:46:00;4.03;;;2.10;;
15071;SDS011;7635;56.696;13.002;2022-10-16T09:48:31;3.33;;;1.85;;
15071;SDS011;7635;56.696;13.002;2022-10-16T09:51:03;4.63;;;1.93;;
15071;SDS011;7635;56.696;13.002;2022-10-16T09:53:38;2.42;;;1.63;;
15071;SDS011;7635;56.696;13.002;2022-10-16T09:56:09;3.40;;;1.80;;
15071;SDS011;7635;56.696;13.002;2022-10-16T09:58:41;2.60;;;1.60;;
15071;SDS011;7635;56.696;13.002;2022-10-16T10:01:11;2.45;;;1.90;;
15071;SDS011;7635;56.696;13.002;2022-10-16T10:03:40;2.60;;;1.40;;
15071;SDS011;7635;56.696;13.002;2022-10-16T10:06:15;2.47;;;1.23;;
15071;SDS011;7635;56.696;13.002;2022-10-16T10:08:57;6.78;;;2.50;;
15071;SDS011;7635;56.696;13.002;2022-10-16T10:11:43;4.72;;;1.52;;
15071;SDS011;7635;56.696;13.002;2022-10-16T10:14:19;2.08;;;1.63;;
15071;SDS011;7635;56.696;13.002;2022-10-16T10:17:00;3.60;;;1.98;;
15071;SDS011;7635;56.696;13.002;2022-10-16T10:19:37;4.72;;;1.92;;
15071;SDS011;7635;56.696;13.002;2022-10-16T10:22:13;6.10;;;2.72;;
15071;SDS011;7635;56.696;13.002;2022-10-16T10:24:44;3.80;;;1.30;;
15071;SDS011;7635;56.696;13.002;2022-10-16T10:27:20;3.42;;;1.73;;
15071;SDS011;7635;56.696;13.002;2022-10-16T10:29:53;3.33;;;1.98;;
15071;SDS011;7635;56.696;13.002;2022-10-16T10:32:30;2.27;;;1.87;;
15071;SDS011;7635;56.696;13.002;2022-10-16T10:35:05;1.85;;;1.70;;
15071;SDS011;7635;56.696;13.002;2022-10-16T10:37:46;5.43;;;1.98;;
15071;SDS011;7635;56.696;13.002;2022-10-16T10:40:24;3.60;;;1.88;;
15071;SDS011;7635;56.696;13.002;2022-10-16T10:42:59;3.55;;;1.80;;
15071;SDS011;7635;56.696;13.002;2022-10-16T10:45:37;2.07;;;1.57;;
15071;SDS011;7635;56.696;13.002;2022-10-16T10:48:19;5.67;;;1.90;;
15071;SDS011;7635;56.696;13.002;2022-10-16T10:50:54;0.63;;;0.63;;
15071;SDS011;7635;56.696;13.002;2022-10-16T10:53:25;2.00;;;1.17;;
15071;SDS011;7635;56.696;13.002;2022-10-16T10:56:05;5.25;;;1.52;;
15071;SDS011;7635;56.696;13.002;2022-10-16T11:01:52;3.57;;;1.60;;
15071;SDS011;7635;56.696;13.002;2022-10-16T11:04:27;4.33;;;2.20;;
15071;SDS011;7635;56.696;13.002;2022-10-16T11:07:10;1.13;;;0.95;;
15071;SDS011;7635;56.696;13.002;2022-10-16T11:09:43;2.00;;;1.80;;
15071;SDS011;7635;56.696;13.002;2022-10-16T11:12:14;4.07;;;1.60;;
15071;SDS011;7635;56.696;13.002;2022-10-16T11:14:46;4.40;;;1.70;;
15071;SDS011;7635;56.696;13.002;2022-10-16T11:17:22;1.77;;;1.45;;
15071;SDS011;7635;56.696;13.002;2022-10-16T11:19:55;1.20;;;1.10;;
15071;SDS011;7635;56.696;13.002;2022-10-16T11:22:27;2.50;;;1.83;;
15071;SDS011;7635;56.696;13.002;2022-10-16T11:24:59;2.95;;;1.60;;
15071;SDS011;7635;56.696;13.002;2022-10-16T11:27:34;3.83;;;1.73;;
15071;SDS011;7635;56.696;13.002;2022-10-16T11:30:04;1.55;;;1.38;;
15071;SDS011;7635;56.696;13.002;2022-10-16T11:32:47;2.85;;;1.50;;
15071;SDS011;7635;56.696;13.002;2022-10-16T11:35:23;2.75;;;1.50;;
15071;SDS011;7635;56.696;13.002;2022-10-16T11:37:54;2.78;;;1.63;;
15071;SDS011;7635;56.696;13.002;2022-10-16T11:40:24;5.32;;;1.55;;
15071;SDS011;7635;56.696;13.002;2022-10-16T11:42:57;1.23;;;0.90;;
15071;SDS011;7635;56.696;13.002;2022-10-16T11:45:30;2.03;;;1.30;;
15071;SDS011;7635;56.696;13.002;2022-10-16T11:48:02;1.77;;;0.90;;
15071;SDS011;7635;56.696;13.002;2022-10-16T11:50:38;1.63;;;0.87;;
15071;SDS011;7635;56.696;13.002;2022-10-16T11:53:11;1.30;;;1.00;;
15071;SDS011;7635;56.696;13.002;2022-10-16T11:55:46;3.53;;;1.23;;
15071;SDS011;7635;56.696;13.002;2022-10-16T11:58:16;0.88;;;0.88;;
15071;SDS011;7635;56.696;13.002;2022-10-16T12:00:51;0.77;;;0.77;;
15071;SDS011;7635;56.696;13.002;2022-10-16T12:03:26;0.70;;;0.70;;
15071;SDS011;7635;56.696;13.002;2022-10-16T12:06:05;2.72;;;1.77;;
15071;SDS011;7635;56.696;13.002;2022-10-16T12:08:39;0.40;;;0.40;;
15071;SDS011;7635;56.696;13.002;2022-10-16T12:11:07;2.17;;;1.10;;
15071;SDS011;7635;56.696;13.002;2022-10-16T12:13:36;1.55;;;0.55;;
15071;SDS011;7635;56.696;13.002;2022-10-16T12:16:05;0.80;;;0.80;;
15071;SDS011;7635;56.696;13.002;2022-10-16T12:18:45;2.75;;;1.13;;
15071;SDS011;7635;56.696;13.002;2022-10-16T12:21:15;2.88;;;1.33;;
15071;SDS011;7635;56.696;13.002;2022-10-16T12:23:47;2.03;;;1.23;;
15071;SDS011;7635;56.696;13.002;2022-10-16T12:26:23;1.90;;;1.45;;
15071;SDS011;7635;56.696;13.002;2022-10-16T12:28:51;5.50;;;1.77;;
15071;SDS011;7635;56.696;13.002;2022-10-16T12:31:18;1.55;;;1.13;;
15071;SDS011;7635;56.696;13.002;2022-10-16T12:33:52;1.40;;;1.08;;
15071;SDS011;7635;56.696;13.002;2022-10-16T12:36:28;0.47;;;0.47;;
15071;SDS011;7635;56.696;13.002;2022-10-16T12:38:57;0.73;;;0.73;;
15071;SDS011;7635;56.696;13.002;2022-10-16T12:41:25;2.22;;;1.00;;
15071;SDS011;7635;56.696;13.002;2022-10-16T12:43:53;2.80;;;1.10;;
15071;SDS011;7635;56.696;13.002;2022-10-16T12:46:22;0.50;;;0.50;;
15071;SDS011;7635;56.696;13.002;2022-10-16T12:49:04;1.23;;;1.02;;
15071;SDS011;7635;56.696;13.002;2022-10-16T12:51:45;0.47;;;0.47;;
15071;SDS011;7635;56.696;13.002;2022-10-16T12:54:13;1.20;;;1.10;;
15071;SDS011;7635;56.696;13.002;2022-10-16T12:56:45;2.03;;;1.17;;
15071;SDS011;7635;56.696;13.002;2022-10-16T12:59:26;1.33;;;1.02;;
15071;SDS011;7635;56.696;13.002;2022-10-16T13:02:07;1.35;;;1.25;;
15071;SDS011;7635;56.696;13.002;2022-10-16T13:04:51;4.10;;;0.80;;
15071;SDS011;7635;56.696;13.002;2022-10-16T13:07:36;0.77;;;0.77;;
15071;SDS011;7635;56.696;13.002;2022-10-16T13:10:14;1.45;;;1.35;;
15071;SDS011;7635;56.696;13.002;2022-10-16T13:12:49;1.95;;;0.77;;
15071;SDS011;7635;56.696;13.002;2022-10-16T13:15:47;3.33;;;1.15;;
15071;SDS011;7635;56.696;13.002;2022-10-16T13:18:25;1.17;;;0.75;;
15071;SDS011;7635;56.696;13.002;2022-10-16T13:21:01;3.40;;;1.23;;
15071;SDS011;7635;56.696;13.002;2022-10-16T13:23:36;1.05;;;0.90;;
15071;SDS011;7635;56.696;13.002;2022-10-16T13:26:14;0.40;;;0.40;;
15071;SDS011;7635;56.696;13.002;2022-10-16T13:28:48;0.32;;;0.32;;
15071;SDS011;7635;56.696;13.002;2022-10-16T13:31:17;2.08;;;1.05;;
15071;SDS011;7635;56.696;13.002;2022-10-16T13:33:47;5.25;;;1.27;;
15071;SDS011;7635;56.696;13.002;2022-10-16T13:36:20;2.65;;;1.55;;
15071;SDS011;7635;56.696;13.002;2022-10-16T13:38:50;1.42;;;0.90;;
15071;SDS011;7635;56.696;13.002;2022-10-16T13:41:30;4.28;;;1.38;;
15071;SDS011;7635;56.696;13.002;2022-10-16T13:43:57;1.77;;;0.95;;
15071;SDS011;7635;56.696;13.002;2022-10-16T13:46:24;1.95;;;1.02;;
15071;SDS011;7635;56.696;13.002;2022-10-16T13:48:58;5.07;;;1.08;;
15071;SDS011;7635;56.696;13.002;2022-10-16T13:51:26;3.85;;;1.17;;
15071;SDS011;7635;56.696;13.002;2022-10-16T13:53:56;1.98;;;1.20;;
15071;SDS011;7635;56.696;13.002;2022-10-16T13:56:24;4.47;;;1.50;;
15071;SDS011;7635;56.696;13.002;2022-10-16T13:59:00;4.88;;;1.40;;
15071;SDS011;7635;56.696;13.002;2022-10-16T14:01:28;1.40;;;0.98;;
15071;SDS011;7635;56.696;13.002;2022-10-16T14:04:00;3.20;;;1.50;;
15071;SDS011;7635;56.696;13.002;2022-10-16T14:06:29;5.00;;;1.52;;
15071;SDS011;7635;56.696;13.002;2022-10-16T14:08:59;1.05;;;1.00;;
15071;SDS011;7635;56.696;13.002;2022-10-16T14:11:27;3.22;;;1.08;;
15071;SDS011;7635;56.696;13.002;2022-10-16T14:13:54;4.60;;;1.80;;
15071;SDS011;7635;56.696;13.002;2022-10-16T14:16:22;4.35;;;1.05;;
15071;SDS011;7635;56.696;13.002;2022-10-16T14:18:54;10.13;;;1.98;;
15071;SDS011;7635;56.696;13.002;2022-10-16T14:21:23;6.03;;;1.60;;
15071;SDS011;7635;56.696;13.002;2022-10-16T14:23:51;5.00;;;1.52;;
15071;SDS011;7635;56.696;13.002;2022-10-16T14:26:20;0.80;;;0.80;;
15071;SDS011;7635;56.696;13.002;2022-10-16T14:29:00;7.18;;;1.65;;
15071;SDS011;7635;56.696;13.002;2022-10-16T14:31:30;7.45;;;1.67;;
15071;SDS011;7635;56.696;13.002;2022-10-16T14:33:58;5.07;;;1.23;;
15071;SDS011;7635;56.696;13.002;2022-10-16T14:36:26;14.60;;;2.75;;
15071;SDS011;7635;56.696;13.002;2022-10-16T14:38:58;9.77;;;1.92;;
15071;SDS011;7635;56.696;13.002;2022-10-16T14:41:29;8.63;;;1.65;;
15071;SDS011;7635;56.696;13.002;2022-10-16T14:43:57;6.75;;;1.17;;
15071;SDS011;7635;56.696;13.002;2022-10-16T14:46:29;4.68;;;1.75;;
15071;SDS011;7635;56.696;13.002;2022-10-16T14:49:00;5.28;;;1.33;;
15071;SDS011;7635;56.696;13.002;2022-10-16T14:51:30;8.73;;;2.55;;
15071;SDS011;7635;56.696;13.002;2022-10-16T14:53:57;6.00;;;1.90;;
15071;SDS011;7635;56.696;13.002;2022-10-16T14:56:24;4.95;;;1.27;;
15071;SDS011;7635;56.696;13.002;2022-10-16T14:58:55;8.52;;;2.35;;
15071;SDS011;7635;56.696;13.002;2022-10-16T15:01:22;8.30;;;2.30;;
15071;SDS011;7635;56.696;13.002;2022-10-16T15:03:49;9.00;;;1.70;;
15071;SDS011;7635;56.696;13.002;2022-10-16T15:06:17;10.05;;;1.95;;
15071;SDS011;7635;56.696;13.002;2022-10-16T15:08:44;5.20;;;1.58;;
15071;SDS011;7635;56.696;13.002;2022-10-16T15:11:10;9.13;;;2.03;;
15071;SDS011;7635;56.696;13.002;2022-10-16T15:13:40;8.68;;;2.15;;